createdAt,value
2017-08-02T00:00:53.394Z,2.03
2017-08-02T00:03:22.080Z,1.57
2017-08-02T00:05:50.949Z,1.30
2017-08-02T00:08:19.656Z,1.40
2017-08-02T00:10:48.638Z,1.90
2017-08-02T00:13:17.439Z,1.77
2017-08-02T00:15:46.125Z,1.57
2017-08-02T00:18:14.809Z,1.70
2017-08-02T00:20:43.705Z,1.60
2017-08-02T00:23:12.385Z,1.47
2017-08-02T00:25:41.071Z,1.50
2017-08-02T00:28:09.759Z,1.63
2017-08-02T00:30:38.441Z,1.20
2017-08-02T00:33:07.537Z,1.53
2017-08-02T00:35:36.195Z,1.27
2017-08-02T00:38:04.911Z,1.37
2017-08-02T00:40:33.603Z,1.37
2017-08-02T00:43:02.283Z,1.40
2017-08-02T00:45:30.924Z,1.00
2017-08-02T00:47:59.659Z,1.83
2017-08-02T00:50:28.516Z,1.70
2017-08-02T00:52:57.237Z,1.70
2017-08-02T00:55:27.186Z,1.10
2017-08-02T00:57:56.036Z,1.20
2017-08-02T01:00:24.722Z,1.30
2017-08-02T01:02:53.610Z,1.77
2017-08-02T01:05:22.500Z,1.67
2017-08-02T01:07:51.186Z,1.70
2017-08-02T01:10:19.870Z,1.57
2017-08-02T01:12:48.561Z,1.00
2017-08-02T01:15:17.243Z,1.47
2017-08-02T01:17:45.928Z,1.10
2017-08-02T01:20:14.616Z,1.10
2017-08-02T01:22:43.301Z,2.13
2017-08-02T01:25:11.997Z,1.57
2017-08-02T01:27:40.672Z,1.40
2017-08-02T01:30:09.356Z,1.57
2017-08-02T01:32:38.247Z,1.93
2017-08-02T01:35:06.933Z,1.53
2017-08-02T01:37:35.619Z,2.20
2017-08-02T01:40:04.512Z,1.57
2017-08-02T01:42:33.196Z,1.50
2017-08-02T01:45:01.907Z,1.70
2017-08-02T01:47:31.589Z,1.77
2017-08-02T01:50:00.480Z,1.60
2017-08-02T01:52:29.171Z,1.90
2017-08-02T01:54:58.227Z,2.20
2017-08-02T01:57:27.154Z,2.00
2017-08-02T01:59:56.042Z,2.43
2017-08-02T02:02:24.932Z,2.53
2017-08-02T02:04:53.623Z,2.00
2017-08-02T02:07:22.511Z,2.50
2017-08-02T02:09:51.195Z,1.53
2017-08-02T02:12:19.879Z,2.00
2017-08-02T02:14:48.568Z,1.90
2017-08-02T02:17:17.251Z,1.87
2017-08-02T02:19:45.939Z,1.73
2017-08-02T02:22:14.830Z,2.03
2017-08-02T02:24:43.513Z,1.73
2017-08-02T02:27:12.200Z,2.23
2017-08-02T02:29:40.890Z,1.60
2017-08-02T02:32:09.576Z,1.40
2017-08-02T02:34:38.257Z,2.00
2017-08-02T02:37:06.941Z,1.77
2017-08-02T02:39:35.831Z,1.70
2017-08-02T02:42:04.516Z,2.27
2017-08-02T02:44:33.206Z,1.47
2017-08-02T02:47:01.888Z,1.87
2017-08-02T02:49:30.574Z,1.83
2017-08-02T02:51:59.470Z,1.90
2017-08-02T02:54:28.560Z,1.80
2017-08-02T02:56:57.855Z,1.67
2017-08-02T02:59:26.550Z,2.00
2017-08-02T03:01:56.259Z,2.30
2017-08-02T03:04:25.970Z,1.90
2017-08-02T03:06:54.652Z,2.07
2017-08-02T03:09:23.544Z,1.90
2017-08-02T03:11:52.238Z,2.60
2017-08-02T03:14:21.731Z,1.97
2017-08-02T03:16:50.420Z,2.80
2017-08-02T03:19:19.312Z,2.50
2017-08-02T03:21:48.200Z,2.47
2017-08-02T03:24:16.883Z,3.10
2017-08-02T03:26:45.573Z,3.37
2017-08-02T03:29:14.871Z,2.90
2017-08-02T03:31:43.740Z,2.53
2017-08-02T03:34:12.652Z,2.30
2017-08-02T03:36:41.335Z,3.30
2017-08-02T03:39:10.432Z,2.80
2017-08-02T03:41:39.120Z,3.00
2017-08-02T03:44:07.801Z,2.60
2017-08-02T03:46:36.514Z,3.10
2017-08-02T03:49:05.174Z,2.70
2017-08-02T03:51:34.065Z,3.23
2017-08-02T03:54:02.750Z,3.47
2017-08-02T03:56:42.824Z,12.83
2017-08-02T03:59:20.292Z,8.60
2017-08-02T04:01:51.952Z,10.40
2017-08-02T04:04:20.839Z,10.50
2017-08-02T04:06:49.732Z,10.10
2017-08-02T04:09:18.629Z,9.97
2017-08-02T04:11:47.726Z,10.30
2017-08-02T04:14:16.606Z,9.57
2017-08-02T04:16:45.497Z,8.60
2017-08-02T04:19:14.184Z,8.27
2017-08-02T04:21:43.074Z,8.37
2017-08-02T04:24:11.962Z,8.07
2017-08-02T04:26:41.469Z,7.20
2017-08-02T04:29:10.153Z,6.53
2017-08-02T04:31:39.042Z,5.50
2017-08-02T04:34:07.736Z,6.27
2017-08-02T04:36:36.427Z,6.10
2017-08-02T04:39:05.305Z,5.47
2017-08-02T04:41:33.993Z,5.37
2017-08-02T04:44:02.684Z,5.10
2017-08-02T04:46:31.336Z,5.33
2017-08-02T04:49:00.056Z,4.60
2017-08-02T04:51:28.743Z,5.10
2017-08-02T04:53:57.423Z,5.00
2017-08-02T04:56:26.106Z,4.17
2017-08-02T04:58:54.996Z,4.03
2017-08-02T05:01:24.295Z,4.10
2017-08-02T05:03:52.980Z,4.10
2017-08-02T05:06:21.848Z,4.50
2017-08-02T05:08:50.558Z,4.10
2017-08-02T05:11:19.237Z,3.90
2017-08-02T05:13:47.930Z,3.83
2017-08-02T05:16:16.617Z,4.63
2017-08-02T05:18:45.306Z,4.37
2017-08-02T05:21:13.996Z,3.60
2017-08-02T05:23:42.877Z,4.50
2017-08-02T05:26:11.564Z,4.97
2017-08-02T05:28:40.457Z,3.90
2017-08-02T05:31:09.106Z,3.40
2017-08-02T05:33:37.821Z,3.80
2017-08-02T05:36:07.124Z,4.83
2017-08-02T05:38:35.807Z,4.73
2017-08-02T05:41:04.705Z,6.03
2017-08-02T05:43:34.203Z,5.30
2017-08-02T05:46:03.099Z,4.87
2017-08-02T05:48:31.946Z,4.60
2017-08-02T05:51:00.874Z,5.07
2017-08-02T05:53:29.768Z,5.40
2017-08-02T05:55:58.614Z,5.80
2017-08-02T05:58:27.585Z,5.27
2017-08-02T06:00:56.646Z,5.10
2017-08-02T06:03:25.498Z,4.93
2017-08-02T06:05:54.226Z,5.60
2017-08-02T06:08:23.116Z,5.97
2017-08-02T06:10:52.000Z,5.77
2017-08-02T06:13:20.892Z,7.47
2017-08-02T06:15:49.983Z,6.50
2017-08-02T06:18:19.054Z,6.00
2017-08-02T06:20:47.968Z,6.10
2017-08-02T06:23:16.657Z,7.03
2017-08-02T06:25:45.545Z,6.13
2017-08-02T06:28:14.445Z,6.80
2017-08-02T06:30:43.327Z,5.87
2017-08-02T06:33:12.015Z,6.27
2017-08-02T06:35:40.698Z,6.30
2017-08-02T06:38:09.561Z,5.63
2017-08-02T06:40:38.281Z,5.13
2017-08-02T06:43:06.957Z,5.70
2017-08-02T06:45:35.849Z,6.40
2017-08-02T06:48:04.740Z,6.20
2017-08-02T06:50:33.631Z,6.40
2017-08-02T06:53:02.319Z,6.13
2017-08-02T06:55:31.207Z,5.97
2017-08-02T06:57:59.902Z,6.40
2017-08-02T07:00:28.992Z,5.40
2017-08-02T07:02:57.881Z,7.57
2017-08-02T07:05:26.562Z,7.40
2017-08-02T07:07:55.251Z,6.77
2017-08-02T07:10:23.940Z,6.53
2017-08-02T07:12:52.621Z,7.93
2017-08-02T07:15:22.329Z,8.70
2017-08-02T07:17:51.021Z,7.60
2017-08-02T07:20:19.908Z,7.00
2017-08-02T07:22:49.001Z,7.57
2017-08-02T07:25:17.688Z,6.97
2017-08-02T07:27:46.597Z,8.97
2017-08-02T07:30:15.467Z,7.90
2017-08-02T07:32:44.156Z,7.67
2017-08-02T07:35:13.052Z,7.23
2017-08-02T07:37:41.940Z,7.00
2017-08-02T07:40:10.626Z,7.80
2017-08-02T07:42:39.510Z,7.13
2017-08-02T07:45:08.402Z,6.77
2017-08-02T07:47:37.263Z,7.83
2017-08-02T07:50:06.594Z,7.53
2017-08-02T07:52:35.490Z,6.57
2017-08-02T07:55:04.170Z,6.30
2017-08-02T07:57:32.851Z,6.80
2017-08-02T08:00:01.509Z,5.30
2017-08-02T08:02:30.432Z,6.30
2017-08-02T08:04:59.115Z,5.50
2017-08-02T08:07:27.805Z,5.07
2017-08-02T08:09:56.487Z,5.67
2017-08-02T08:12:25.376Z,5.70
2017-08-02T08:14:54.067Z,4.30
2017-08-02T08:17:22.746Z,4.40
2017-08-02T08:19:51.436Z,4.60
2017-08-02T08:22:20.123Z,3.60
2017-08-02T08:24:49.017Z,4.50
2017-08-02T08:27:17.903Z,4.00
2017-08-02T08:29:46.795Z,4.07
2017-08-02T08:32:15.688Z,3.30
2017-08-02T08:34:44.388Z,3.67
2017-08-02T08:37:13.466Z,4.50
2017-08-02T08:39:42.558Z,3.30
2017-08-02T08:42:11.246Z,3.73
2017-08-02T08:44:40.340Z,3.13
2017-08-02T08:47:09.227Z,3.40
2017-08-02T08:49:37.914Z,3.33
2017-08-02T08:52:06.989Z,4.40
2017-08-02T08:54:35.904Z,3.00
2017-08-02T08:57:04.591Z,3.50
2017-08-02T08:59:33.270Z,5.80
2017-08-02T09:02:01.954Z,3.17
2017-08-02T09:04:30.679Z,2.93
2017-08-02T09:06:59.538Z,3.50
2017-08-02T09:09:28.561Z,4.10
2017-08-02T09:11:57.311Z,3.27
2017-08-02T09:14:25.998Z,3.23
2017-08-02T09:16:54.695Z,3.20
2017-08-02T09:19:23.583Z,3.03
2017-08-02T09:21:52.260Z,3.27
2017-08-02T09:24:20.945Z,2.80
2017-08-02T09:26:49.838Z,2.83
2017-08-02T09:29:18.521Z,3.47
2017-08-02T09:31:47.245Z,3.07
2017-08-02T09:34:16.306Z,2.67
2017-08-02T09:36:44.995Z,2.70
2017-08-02T09:39:13.673Z,3.20
2017-08-02T09:41:42.551Z,2.53
2017-08-02T09:44:11.249Z,3.00
2017-08-02T09:46:40.141Z,3.20
2017-08-02T09:49:09.001Z,2.67
2017-08-02T09:51:37.722Z,2.27
2017-08-02T09:54:06.413Z,2.53
2017-08-02T10:26:37.347Z,3.83
2017-08-02T10:29:06.029Z,3.07
2017-08-02T10:31:34.913Z,3.30
2017-08-02T10:34:19.178Z,3.10
2017-08-02T10:37:03.154Z,3.80
2017-08-02T10:39:33.738Z,3.27
2017-08-02T10:42:02.431Z,3.10
2017-08-02T10:44:31.110Z,3.03
2017-08-02T10:46:59.958Z,3.30
2017-08-02T10:49:28.695Z,3.57
2017-08-02T10:51:57.585Z,3.10
2017-08-02T10:54:27.493Z,2.87
2017-08-02T10:56:57.201Z,3.33
2017-08-02T10:59:27.435Z,3.17
2017-08-02T11:01:58.874Z,3.30
2017-08-02T11:04:30.500Z,3.57
2017-08-02T11:06:59.935Z,3.87
2017-08-02T11:09:28.830Z,3.40
2017-08-02T11:11:57.712Z,3.87
2017-08-02T11:14:27.391Z,3.27
2017-08-02T11:16:56.216Z,3.47
2017-08-02T11:19:25.000Z,3.87
2017-08-02T11:21:53.891Z,3.80
2017-08-02T11:24:22.787Z,4.77
2017-08-02T11:26:52.495Z,5.07
2017-08-02T11:29:21.380Z,7.70
2017-08-02T11:31:50.274Z,29.47
2017-08-02T11:34:19.161Z,43.50
2017-08-02T11:36:47.847Z,13.00
2017-08-02T11:39:16.740Z,17.30
2017-08-02T11:41:45.639Z,15.77
2017-08-02T11:44:15.340Z,15.70
2017-08-02T11:46:44.027Z,16.50
2017-08-02T11:49:12.714Z,11.83
2017-08-02T11:51:41.605Z,11.73
2017-08-02T11:54:10.489Z,11.10
2017-08-02T11:56:39.384Z,9.47
2017-08-02T11:59:08.265Z,8.73
2017-08-02T12:01:36.955Z,7.97
2017-08-02T12:04:05.644Z,7.73
2017-08-02T12:06:34.540Z,6.77
2017-08-02T12:09:03.422Z,7.73
2017-08-02T12:11:32.109Z,8.40
2017-08-02T12:14:01.005Z,5.93
2017-08-02T12:16:29.895Z,5.90
2017-08-02T12:18:58.784Z,6.63
2017-08-02T12:21:27.675Z,5.90
2017-08-02T12:24:02.096Z,4.90
2017-08-02T12:26:30.985Z,5.97
2017-08-02T12:28:59.872Z,5.60
2017-08-02T12:31:28.769Z,5.23
2017-08-02T12:33:58.036Z,6.07
2017-08-02T12:36:26.748Z,6.23
2017-08-02T12:38:55.652Z,5.00
2017-08-02T12:41:24.529Z,5.53
2017-08-02T13:57:52.282Z,4.73
2017-08-02T14:00:21.377Z,5.53
2017-08-02T14:02:50.271Z,6.30
2017-08-02T14:05:19.164Z,5.93
2017-08-02T14:07:48.868Z,6.53
2017-08-02T14:10:17.759Z,5.30
2017-08-02T14:12:46.661Z,6.20
2017-08-02T14:15:15.541Z,6.13
2017-08-02T14:17:44.231Z,6.60
2017-08-02T14:20:13.120Z,8.40
2017-08-02T14:22:42.012Z,9.20
2017-08-02T14:25:10.898Z,11.00
2017-08-02T14:27:39.790Z,11.70
2017-08-02T14:30:08.684Z,10.90
2017-08-02T14:32:37.568Z,12.60
2017-08-02T14:35:06.469Z,10.37
2017-08-02T14:37:35.355Z,9.20
2017-08-02T14:40:04.443Z,15.03
2017-08-02T14:42:33.335Z,48.10
2017-08-02T14:45:02.330Z,63.90
2017-08-02T14:47:31.270Z,47.20
2017-08-02T14:50:00.699Z,33.23
2017-08-02T14:52:30.536Z,30.83
2017-08-02T14:54:59.429Z,20.90
2017-08-02T14:57:28.728Z,14.07
2017-08-02T14:59:57.617Z,12.27
2017-08-02T15:02:27.331Z,12.50
2017-08-02T15:04:56.216Z,10.00
2017-08-02T15:07:24.913Z,7.87
2017-08-02T15:09:53.735Z,7.93
2017-08-02T15:12:22.667Z,6.37
2017-08-02T15:14:51.576Z,5.90
2017-08-02T15:17:20.474Z,5.57
2017-08-02T15:19:49.355Z,5.00
2017-08-02T15:22:18.671Z,5.20
2017-08-02T15:24:47.547Z,4.03
2017-08-02T15:27:17.256Z,3.90
2017-08-02T15:41:35.583Z,3.00
2017-08-02T15:44:04.472Z,2.80
2017-08-02T15:46:33.361Z,3.10
2017-08-02T15:49:02.256Z,2.40
2017-08-02T15:51:31.347Z,2.60
2017-08-02T15:54:00.246Z,2.33
2017-08-02T15:56:30.975Z,2.50
2017-08-02T15:58:59.861Z,2.50
2017-08-02T16:01:28.751Z,2.87
2017-08-02T16:03:57.619Z,2.40
2017-08-02T16:06:26.331Z,2.20
2017-08-02T16:08:55.912Z,1.70
2017-08-02T16:11:25.981Z,2.00
2017-08-02T16:13:55.048Z,1.93
2017-08-02T16:16:25.727Z,2.07
2017-08-02T16:18:55.697Z,2.73
2017-08-02T16:21:24.591Z,2.50
2017-08-02T16:23:53.411Z,2.00
2017-08-02T16:26:22.408Z,2.20
2017-08-02T16:28:51.256Z,2.23
2017-08-02T16:31:20.564Z,2.70
2017-08-02T16:33:49.446Z,2.50
2017-08-02T16:36:18.952Z,2.60
2017-08-02T16:38:47.639Z,2.40
2017-08-02T16:41:16.532Z,2.60
2017-08-02T16:43:46.033Z,3.00
2017-08-02T16:46:15.142Z,2.37
2017-08-02T16:48:44.023Z,2.77
2017-08-02T16:51:12.918Z,2.00
2017-08-02T16:53:42.008Z,2.60
2017-08-02T16:56:10.882Z,1.90
2017-08-02T16:58:39.587Z,2.70
2017-08-02T17:01:08.693Z,2.07
2017-08-02T17:03:37.569Z,1.83
2017-08-02T17:06:06.459Z,1.97
2017-08-02T17:08:35.759Z,1.97
2017-08-02T17:11:04.649Z,2.10
2017-08-02T17:13:34.757Z,2.10
2017-08-02T17:16:06.294Z,2.53
2017-08-02T17:18:35.562Z,1.90
2017-08-02T17:21:04.515Z,2.10
2017-08-02T17:23:33.200Z,1.80
2017-08-02T17:26:02.103Z,2.60
2017-08-02T17:28:30.980Z,2.40
2017-08-02T17:30:59.884Z,2.23
2017-08-02T17:33:28.958Z,2.40
2017-08-02T17:35:57.856Z,2.27
2017-08-02T17:38:26.928Z,2.50
2017-08-02T17:40:55.647Z,2.73
2017-08-02T17:43:24.732Z,2.10
2017-08-02T17:45:53.417Z,2.37
2017-08-02T17:48:22.928Z,2.30
2017-08-02T17:50:51.814Z,2.30
2017-08-02T17:53:20.707Z,2.40
2017-08-02T17:55:50.416Z,2.80
2017-08-02T17:58:19.923Z,2.27
2017-08-02T18:00:48.815Z,2.30
2017-08-02T18:03:17.699Z,2.23
2017-08-02T18:05:47.378Z,2.10
2017-08-02T18:08:16.305Z,2.20
2017-08-02T18:10:45.190Z,2.20
2017-08-02T18:13:14.080Z,2.43
2017-08-02T18:15:42.975Z,2.40
2017-08-02T18:18:11.863Z,2.57
2017-08-02T18:20:40.759Z,2.37
2017-08-02T18:23:09.648Z,3.37
2017-08-02T18:25:38.543Z,2.50
2017-08-02T18:28:07.639Z,2.30
2017-08-02T18:30:37.544Z,2.13
2017-08-02T18:33:07.259Z,2.50
2017-08-02T18:35:36.351Z,2.73
2017-08-02T18:38:06.061Z,1.77
2017-08-02T18:40:34.752Z,2.27
2017-08-02T18:43:03.613Z,2.13
2017-08-02T18:45:33.329Z,2.23
2017-08-02T18:48:02.239Z,2.47
2017-08-02T18:50:31.296Z,2.20
2017-08-02T18:53:00.226Z,1.70
2017-08-02T18:55:29.317Z,1.93
2017-08-02T18:57:58.304Z,2.13
2017-08-02T19:00:27.281Z,3.10
2017-08-02T19:02:56.358Z,2.20
2017-08-02T19:05:25.295Z,2.10
2017-08-02T19:07:54.344Z,1.93
2017-08-02T19:10:24.096Z,2.43
2017-08-02T19:12:52.988Z,2.00
2017-08-02T19:15:21.876Z,2.17
2017-08-02T19:17:50.973Z,2.63
2017-08-02T19:20:19.812Z,2.40
2017-08-02T19:22:49.484Z,2.07
2017-08-02T19:25:18.463Z,2.40
2017-08-02T19:27:47.367Z,2.33
2017-08-02T19:30:16.338Z,2.30
2017-08-02T19:32:45.347Z,2.10
2017-08-02T19:35:14.230Z,2.10
2017-08-02T19:37:43.130Z,1.73
2017-08-02T19:40:12.836Z,2.00
2017-08-02T19:42:41.721Z,2.20
2017-08-02T19:45:10.619Z,3.43
2017-08-02T19:47:40.737Z,2.07
2017-08-02T19:50:09.825Z,2.07
2017-08-02T19:52:39.095Z,2.07
2017-08-02T19:55:08.841Z,2.17
2017-08-02T19:57:37.933Z,3.10
2017-08-02T20:00:07.233Z,2.63
2017-08-02T20:02:37.146Z,2.47
2017-08-02T20:05:06.036Z,2.30
2017-08-02T20:07:34.926Z,2.13
2017-08-02T20:10:04.205Z,2.50
2017-08-02T20:12:32.912Z,2.70
2017-08-02T20:15:01.750Z,2.50
2017-08-02T20:17:30.680Z,2.53
2017-08-02T20:19:59.382Z,1.97
2017-08-02T20:22:28.276Z,2.63
2017-08-02T20:24:57.167Z,1.97
2017-08-02T20:27:25.847Z,2.67
2017-08-02T20:29:54.744Z,2.20
2017-08-02T20:32:23.833Z,2.20
2017-08-02T20:34:52.726Z,3.00
2017-08-02T20:37:21.613Z,1.87
2017-08-02T20:39:50.506Z,2.37
2017-08-02T20:42:19.600Z,3.27
2017-08-02T20:44:48.489Z,2.83
2017-08-02T20:47:17.387Z,3.00
2017-08-02T20:49:46.271Z,2.73
2017-08-02T20:52:15.184Z,2.80
2017-08-02T20:54:44.057Z,2.53
2017-08-02T20:57:12.941Z,2.20
2017-08-02T20:59:41.834Z,2.53
2017-08-02T21:02:10.950Z,2.80
2017-08-02T21:04:40.034Z,2.47
2017-08-02T21:07:08.914Z,2.80
2017-08-02T21:09:37.805Z,4.33
2017-08-02T21:12:06.696Z,3.07
2017-08-02T21:14:35.587Z,4.10
2017-08-02T21:17:04.482Z,2.80
2017-08-02T21:19:33.548Z,3.40
2017-08-02T21:22:02.465Z,3.67
2017-08-02T21:24:31.354Z,3.40
2017-08-02T21:27:00.249Z,3.13
2017-08-02T21:29:29.135Z,3.33
2017-08-02T21:31:58.229Z,2.90
2017-08-02T21:34:27.517Z,3.20
2017-08-02T21:36:56.568Z,3.17
2017-08-02T21:39:26.130Z,3.10
2017-08-02T21:41:55.026Z,3.60
2017-08-02T21:44:24.114Z,3.30
2017-08-02T21:46:53.012Z,2.73
2017-08-02T21:49:21.898Z,3.07
2017-08-02T21:51:50.808Z,2.53
2017-08-02T21:54:20.090Z,2.73
2017-08-02T21:56:48.978Z,3.00
2017-08-02T21:59:17.877Z,2.93
2017-08-02T22:01:46.758Z,3.20
2017-08-02T22:04:15.857Z,3.37
2017-08-02T22:06:44.744Z,2.57
2017-08-02T22:09:13.433Z,3.00
2017-08-02T22:11:42.936Z,3.07
2017-08-02T22:14:11.795Z,3.30
2017-08-02T22:16:40.491Z,3.40
2017-08-02T22:19:09.204Z,3.43
2017-08-02T22:21:38.087Z,3.27
2017-08-02T22:24:06.775Z,3.20
2017-08-02T22:26:35.665Z,2.47
2017-08-02T22:29:04.555Z,2.90
2017-08-02T22:31:33.240Z,2.90
2017-08-02T22:34:02.131Z,2.70
2017-08-02T22:36:32.761Z,3.07
2017-08-02T22:39:02.370Z,2.80
2017-08-02T22:41:31.263Z,2.97
2017-08-02T22:44:00.155Z,3.27
2017-08-02T22:46:29.040Z,2.40
2017-08-02T22:48:57.730Z,2.70
2017-08-02T22:51:26.413Z,2.30
2017-08-02T22:53:55.104Z,2.57
2017-08-02T22:56:24.021Z,2.60
2017-08-02T22:58:53.930Z,2.57
2017-08-02T23:01:22.796Z,3.03
2017-08-02T23:03:52.302Z,2.70
2017-08-02T23:06:20.985Z,2.57
2017-08-02T23:08:49.877Z,2.80
2017-08-02T23:11:18.566Z,3.57
2017-08-02T23:13:48.255Z,2.17
2017-08-02T23:16:17.161Z,2.57
2017-08-02T23:18:52.612Z,3.03
2017-08-02T23:21:21.294Z,2.87
2017-08-02T23:23:49.978Z,2.77
2017-08-02T23:26:18.664Z,2.90
2017-08-02T23:28:47.353Z,3.47
2017-08-02T23:31:16.040Z,2.83
2017-08-02T23:33:45.745Z,3.10
2017-08-02T23:36:14.634Z,2.63
2017-08-02T23:38:43.320Z,2.83
2017-08-02T23:41:12.212Z,2.53
2017-08-02T23:43:40.899Z,2.37
2017-08-02T23:46:09.742Z,2.80
2017-08-02T23:48:38.473Z,3.10
2017-08-02T23:51:07.161Z,2.70
2017-08-02T23:53:35.843Z,2.83
2017-08-02T23:56:04.911Z,3.27
2017-08-02T23:58:33.626Z,3.37
